createdAt,value
2016-10-08T00:00:34.401Z,99.99
2016-10-08T00:01:34.434Z,99.99
2016-10-08T00:02:34.446Z,99.89
2016-10-08T00:03:34.458Z,99.69
2016-10-08T00:04:34.483Z,99.99
2016-10-08T00:05:34.503Z,99.98
2016-10-08T00:06:34.511Z,99.99
2016-10-08T00:07:34.531Z,99.99
2016-10-08T00:08:34.559Z,99.41
2016-10-08T00:09:34.564Z,98.55
2016-10-08T00:10:34.583Z,99.22
2016-10-08T00:11:34.601Z,99.03
2016-10-08T00:12:34.603Z,99.32
2016-10-08T00:13:34.630Z,99.32
2016-10-08T00:14:34.644Z,99.22
2016-10-08T00:15:34.662Z,98.65
2016-10-08T00:16:34.685Z,98.74
2016-10-08T00:17:34.696Z,98.74
2016-10-08T00:18:34.712Z,98.84
2016-10-08T00:19:34.725Z,98.55
2016-10-08T00:20:34.745Z,98.74
2016-10-08T00:21:34.757Z,98.03
2016-10-08T00:22:34.791Z,98.27
2016-10-08T00:23:34.788Z,98.27
2016-10-08T00:24:34.812Z,98.27
2016-10-08T00:25:34.819Z,97.41
2016-10-08T00:26:34.842Z,97.03
2016-10-08T00:27:34.863Z,95.84
2016-10-08T00:28:34.866Z,95.75
2016-10-08T00:29:34.886Z,96.41
2016-10-08T00:30:34.917Z,96.03
2016-10-08T00:31:34.927Z,94.79
2016-10-08T00:32:34.941Z,94.7
2016-10-08T00:33:34.943Z,95.56
2016-10-08T00:34:34.965Z,95.56
2016-10-08T00:35:35.004Z,95.46
2016-10-08T00:36:35.005Z,95.84
2016-10-08T00:37:35.028Z,96.51
2016-10-08T00:38:35.373Z,96.89
2016-10-08T00:39:35.056Z,97.08
2016-10-08T00:40:35.068Z,97.36
2016-10-08T00:41:35.083Z,96.89
2016-10-08T00:42:35.106Z,97.27
2016-10-08T00:43:35.106Z,97.17
2016-10-08T00:44:35.147Z,97.46
2016-10-08T00:45:35.145Z,97.08
2016-10-08T00:46:35.172Z,97.74
2016-10-08T00:47:35.177Z,96.98
2016-10-08T00:48:35.199Z,97.36
2016-10-08T00:49:35.204Z,97.36
2016-10-08T00:50:35.242Z,96.79
2016-10-08T00:51:35.241Z,97.27
2016-10-08T00:52:35.258Z,96.98
2016-10-08T00:53:35.285Z,96.98
2016-10-08T00:54:35.304Z,97.27
2016-10-08T00:55:35.318Z,97.55
2016-10-08T00:56:35.337Z,96.7
2016-10-08T00:57:35.333Z,96.7
2016-10-08T00:58:35.369Z,96.51
2016-10-08T00:59:35.375Z,96.41
2016-10-08T01:00:35.405Z,96.22
2016-10-08T01:01:35.405Z,96.51
2016-10-08T01:02:35.432Z,96.6
2016-10-08T01:03:35.435Z,96.98
2016-10-08T01:04:35.463Z,95.65
2016-10-08T01:05:35.475Z,96.03
2016-10-08T01:06:35.488Z,96.22
2016-10-08T01:07:35.505Z,96.98
2016-10-08T01:08:35.616Z,96.89
2016-10-08T01:09:35.541Z,97.17
2016-10-08T01:10:35.561Z,96.41
2016-10-08T01:11:35.576Z,95.75
2016-10-08T01:12:35.586Z,95.36
2016-10-08T01:13:35.601Z,96.12
2016-10-08T01:14:35.618Z,96.7
2016-10-08T01:15:35.638Z,96.6
2016-10-08T01:16:35.654Z,96.98
2016-10-08T01:17:35.665Z,97.08
2016-10-08T01:18:35.675Z,96.89
2016-10-08T01:19:35.693Z,97.08
2016-10-08T01:20:35.715Z,97.46
2016-10-08T01:21:35.727Z,97.74
2016-10-08T01:22:35.759Z,97.46
2016-10-08T01:23:35.761Z,97.65
2016-10-08T01:24:35.782Z,97.46
2016-10-08T01:25:35.797Z,97.93
2016-10-08T01:26:35.822Z,97.46
2016-10-08T01:27:35.824Z,97.93
2016-10-08T01:28:35.838Z,97.74
2016-10-08T01:29:35.849Z,96.89
2016-10-08T01:30:35.874Z,97.55
2016-10-08T01:31:35.886Z,97.36
2016-10-08T01:32:35.895Z,97.55
2016-10-08T01:33:35.922Z,96.79
2016-10-08T01:34:35.936Z,97.08
2016-10-08T01:35:35.951Z,97.36
2016-10-08T01:36:35.973Z,97.17
2016-10-08T01:37:35.983Z,97.36
2016-10-08T01:38:36.005Z,98.03
2016-10-08T01:39:36.010Z,97.93
2016-10-08T01:40:36.038Z,97.93
2016-10-08T01:41:36.054Z,98.32
2016-10-08T01:42:36.075Z,98.13
2016-10-08T01:43:36.086Z,98.13
2016-10-08T01:44:36.105Z,98.32
2016-10-08T01:45:36.103Z,98.32
2016-10-08T01:46:36.468Z,98.03
2016-10-08T01:47:36.147Z,98.79
2016-10-08T01:48:36.162Z,98.5
2016-10-08T01:49:36.175Z,98.41
2016-10-08T01:50:36.195Z,98.5
2016-10-08T01:51:36.215Z,98.03
2016-10-08T01:52:36.242Z,97.65
2016-10-08T01:53:36.243Z,97.65
2016-10-08T01:54:36.278Z,98.41
2016-10-08T01:55:36.269Z,98.32
2016-10-08T01:56:36.283Z,98.03
2016-10-08T01:57:36.311Z,98.22
2016-10-08T01:58:36.331Z,98.79
2016-10-08T01:59:36.329Z,98.5
2016-10-08T02:00:36.357Z,98.5
2016-10-08T02:01:36.364Z,98.22
2016-10-08T02:02:36.398Z,98.5
2016-10-08T02:03:36.393Z,97.74
2016-10-08T02:04:36.755Z,97.93
2016-10-08T02:05:36.428Z,98.03
2016-10-08T02:06:36.454Z,98.32
2016-10-08T02:07:36.465Z,97.74
2016-10-08T02:08:36.496Z,97.93
2016-10-08T02:09:36.505Z,98.13
2016-10-08T02:10:36.520Z,98.69
2016-10-08T02:11:36.535Z,98.22
2016-10-08T02:12:36.559Z,98.5
2016-10-08T02:13:36.560Z,98.41
2016-10-08T02:14:36.589Z,99.36
2016-10-08T02:15:36.595Z,99.41
2016-10-08T02:16:36.613Z,99.6
2016-10-08T02:17:36.629Z,99.69
2016-10-08T02:18:36.653Z,99.79
2016-10-08T02:19:36.662Z,99.99
2016-10-08T02:20:36.674Z,99.99
2016-10-08T02:21:36.697Z,99.99
2016-10-08T02:22:36.713Z,99.99
2016-10-08T02:23:36.730Z,99.99
2016-10-08T02:24:36.755Z,99.99
2016-10-08T02:25:36.763Z,99.99
2016-10-08T02:26:36.779Z,99.99
2016-10-08T02:27:36.789Z,99.99
2016-10-08T02:28:36.812Z,99.99
2016-10-08T02:29:36.835Z,99.99
2016-10-08T02:30:36.831Z,99.99
2016-10-08T02:31:36.854Z,99.99
2016-10-08T02:32:36.866Z,99.99
2016-10-08T02:33:36.887Z,99.99
2016-10-08T02:34:36.908Z,99.99
2016-10-08T02:35:36.921Z,99.99
2016-10-08T02:36:36.931Z,99.99
2016-10-08T02:37:36.954Z,99.99
2016-10-08T02:38:36.961Z,99.99
2016-10-08T02:39:36.981Z,99.99
2016-10-08T02:40:37.005Z,99.99
2016-10-08T02:41:37.012Z,99.99
2016-10-08T02:42:37.024Z,99.99
2016-10-08T02:43:37.045Z,99.99
2016-10-08T02:44:37.065Z,99.99
2016-10-08T02:45:37.079Z,99.99
2016-10-08T02:46:37.093Z,99.99
2016-10-08T02:47:37.115Z,99.99
2016-10-08T02:48:37.130Z,99.99
2016-10-08T02:49:37.142Z,99.99
2016-10-08T02:50:37.171Z,99.99
2016-10-08T02:51:37.163Z,99.99
2016-10-08T02:52:37.197Z,99.99
2016-10-08T02:53:37.217Z,99.99
2016-10-08T02:54:37.225Z,99.99
2016-10-08T02:55:37.239Z,99.99
2016-10-08T02:56:37.266Z,99.99
2016-10-08T02:57:37.265Z,99.99
2016-10-08T02:58:37.296Z,99.99
2016-10-08T02:59:37.308Z,99.99
2016-10-08T03:00:37.321Z,99.99
2016-10-08T03:01:37.328Z,99.99
2016-10-08T03:02:37.360Z,99.99
2016-10-08T03:03:37.367Z,99.99
2016-10-08T03:04:37.395Z,99.99
2016-10-08T03:05:37.403Z,99.99
2016-10-08T03:06:37.421Z,99.99
2016-10-08T03:07:37.424Z,99.99
2016-10-08T03:08:37.765Z,99.99
2016-10-08T03:09:37.462Z,99.99
2016-10-08T03:10:37.476Z,99.99
2016-10-08T03:11:37.497Z,99.99
2016-10-08T03:12:37.498Z,99.99
2016-10-08T03:13:37.518Z,99.99
2016-10-08T03:14:37.538Z,99.99
2016-10-08T03:15:37.558Z,99.99
2016-10-08T03:16:37.570Z,99.99
2016-10-08T03:17:37.577Z,99.99
2016-10-08T03:18:37.604Z,99.88
2016-10-08T03:19:37.619Z,99.99
2016-10-08T03:20:37.634Z,99.99
2016-10-08T03:21:37.645Z,99.69
2016-10-08T03:22:37.657Z,99.6
2016-10-08T03:23:37.672Z,99.99
2016-10-08T03:24:37.688Z,99.99
2016-10-08T03:25:37.718Z,99.99
2016-10-08T03:26:37.727Z,99.99
2016-10-08T03:27:37.739Z,99.99
2016-10-08T03:28:37.750Z,99.99
2016-10-08T03:29:37.775Z,99.99
2016-10-08T03:30:37.787Z,99.99
2016-10-08T03:31:37.792Z,99.99
2016-10-08T03:32:37.835Z,99.99
2016-10-08T03:33:37.827Z,99.99
2016-10-08T03:34:37.864Z,99.99
2016-10-08T03:35:37.862Z,99.99
2016-10-08T03:36:37.888Z,99.99
2016-10-08T03:37:37.912Z,99.99
2016-10-08T03:38:37.929Z,99.45
2016-10-08T03:39:37.936Z,99.99
2016-10-08T03:40:37.945Z,99.99
2016-10-08T03:41:37.954Z,99.99
2016-10-08T03:42:37.968Z,99.84
2016-10-08T03:43:37.999Z,99.99
2016-10-08T03:44:38.005Z,99.93
2016-10-08T03:45:38.023Z,99.99
2016-10-08T03:46:38.044Z,99.99
2016-10-08T03:47:38.049Z,99.74
2016-10-08T03:48:38.079Z,99.99
2016-10-08T03:49:38.091Z,99.55
2016-10-08T03:50:38.107Z,99.45
2016-10-08T03:51:38.113Z,99.16
2016-10-08T03:52:38.125Z,99.45
2016-10-08T03:53:38.135Z,99.99
2016-10-08T03:54:38.163Z,99.99
2016-10-08T03:55:38.184Z,99.99
2016-10-08T03:56:38.188Z,99.88
2016-10-08T03:57:38.217Z,99.99
2016-10-08T03:58:38.222Z,99.88
2016-10-08T03:59:38.237Z,99.99
2016-10-08T04:01:38.270Z,99.99
2016-10-08T04:02:38.281Z,99.99
2016-10-08T04:03:38.307Z,99.99
2016-10-08T04:04:38.323Z,99.99
2016-10-08T04:05:38.341Z,99.99
2016-10-08T04:06:38.341Z,99.99
2016-10-08T04:07:38.357Z,99.99
2016-10-08T04:08:38.374Z,99.99
2016-10-08T04:09:38.398Z,99.99
2016-10-08T04:10:38.407Z,99.99
2016-10-08T04:11:38.416Z,99.99
2016-10-08T04:12:38.447Z,99.99
2016-10-08T04:13:38.454Z,99.99
2016-10-08T04:14:38.477Z,99.99
2016-10-08T04:15:38.490Z,99.99
2016-10-08T04:16:38.494Z,99.99
2016-10-08T04:17:38.516Z,99.99
2016-10-08T04:18:38.530Z,99.99
2016-10-08T04:19:38.551Z,99.99
2016-10-08T04:20:38.560Z,99.99
2016-10-08T04:21:38.586Z,99.99
2016-10-08T04:22:38.596Z,99.99
2016-10-08T04:23:38.617Z,99.99
2016-10-08T04:24:38.625Z,99.99
2016-10-08T04:25:38.646Z,99.99
2016-10-08T04:26:38.663Z,99.99
2016-10-08T04:27:38.676Z,99.99
2016-10-08T04:28:38.697Z,99.99
2016-10-08T04:29:38.702Z,99.99
2016-10-08T04:30:38.709Z,99.99
2016-10-08T04:31:38.735Z,99.99
2016-10-08T04:32:38.763Z,99.99
2016-10-08T04:33:38.761Z,99.99
2016-10-08T04:34:38.785Z,99.99
2016-10-08T04:35:38.783Z,99.99
2016-10-08T04:36:38.810Z,99.99
2016-10-08T04:37:38.833Z,99.99
2016-10-08T04:38:38.846Z,99.99
2016-10-08T04:39:38.863Z,99.99
2016-10-08T04:40:38.876Z,99.99
2016-10-08T04:41:38.885Z,99.99
2016-10-08T04:42:38.901Z,99.99
2016-10-08T04:43:38.916Z,99.99
2016-10-08T04:44:38.939Z,99.99
2016-10-08T04:45:38.947Z,99.99
2016-10-08T04:46:38.968Z,99.99
2016-10-08T04:47:38.987Z,99.99
2016-10-08T04:48:38.997Z,99.99
2016-10-08T04:49:39.018Z,99.99
2016-10-08T04:50:39.024Z,99.99
2016-10-08T04:51:39.042Z,99.99
2016-10-08T04:52:39.061Z,99.99
2016-10-08T04:53:39.086Z,99.99
2016-10-08T04:54:39.092Z,99.99
2016-10-08T04:55:39.107Z,99.99
2016-10-08T04:56:39.135Z,99.99
2016-10-08T04:57:39.136Z,99.99
2016-10-08T04:58:39.156Z,99.99
2016-10-08T04:59:39.167Z,99.99
2016-10-08T05:00:39.176Z,99.99
2016-10-08T05:01:39.202Z,99.99
2016-10-08T05:02:39.219Z,99.99
2016-10-08T05:03:39.222Z,99.99
2016-10-08T05:04:39.249Z,99.99
2016-10-08T05:05:39.248Z,99.99
2016-10-08T05:06:39.283Z,99.99
2016-10-08T05:07:39.295Z,99.99
2016-10-08T05:08:39.301Z,99.99
2016-10-08T05:09:39.320Z,99.99
2016-10-08T05:10:39.333Z,99.99
2016-10-08T05:11:39.346Z,99.99
2016-10-08T05:12:39.364Z,99.99
2016-10-08T05:13:39.383Z,99.99
2016-10-08T05:14:39.399Z,99.99
2016-10-08T05:15:39.423Z,99.99
2016-10-08T05:16:39.432Z,99.99
2016-10-08T05:17:39.438Z,99.99
2016-10-08T05:18:39.453Z,99.99
2016-10-08T05:19:39.478Z,99.99
2016-10-08T05:20:39.495Z,99.99
2016-10-08T05:21:39.505Z,99.99
2016-10-08T05:22:39.521Z,99.99
2016-10-08T05:23:39.535Z,99.99
2016-10-08T05:24:39.549Z,99.99
2016-10-08T05:25:39.575Z,99.99
2016-10-08T05:26:39.579Z,99.99
2016-10-08T05:27:39.597Z,99.99
2016-10-08T05:28:39.608Z,99.99
2016-10-08T05:29:39.628Z,99.99
2016-10-08T05:30:39.640Z,99.99
2016-10-08T05:31:39.660Z,99.99
2016-10-08T05:32:39.669Z,99.99
2016-10-08T05:33:39.696Z,99.99
2016-10-08T05:34:39.701Z,99.99
2016-10-08T05:35:39.723Z,99.99
2016-10-08T05:36:39.755Z,99.99
2016-10-08T05:37:39.754Z,99.99
2016-10-08T05:38:40.087Z,99.99
2016-10-08T05:39:39.775Z,99.99
2016-10-08T05:40:39.801Z,99.99
2016-10-08T05:41:39.805Z,99.99
2016-10-08T05:42:39.810Z,99.99
2016-10-08T05:43:39.842Z,99.99
2016-10-08T05:44:39.859Z,99.99
2016-10-08T05:45:39.870Z,99.99
2016-10-08T05:46:39.878Z,99.99
2016-10-08T05:47:39.907Z,99.99
2016-10-08T05:48:39.908Z,99.99
2016-10-08T05:49:39.931Z,99.99
2016-10-08T05:50:39.952Z,99.99
2016-10-08T05:51:39.961Z,99.99
2016-10-08T05:52:39.980Z,99.99
2016-10-08T05:53:39.989Z,99.99
2016-10-08T05:54:40.007Z,99.99
2016-10-08T05:55:40.033Z,99.99
2016-10-08T05:56:40.042Z,99.99
2016-10-08T05:57:40.056Z,99.99
2016-10-08T05:58:40.074Z,99.99
2016-10-08T05:59:40.076Z,99.99
2016-10-08T06:00:40.086Z,99.99
2016-10-08T06:01:40.103Z,99.99
2016-10-08T06:02:40.128Z,99.99
2016-10-08T06:03:40.151Z,99.99
2016-10-08T06:04:40.161Z,99.99
2016-10-08T06:05:40.177Z,99.99
2016-10-08T06:06:40.190Z,99.99
2016-10-08T06:07:40.211Z,99.99
2016-10-08T06:08:40.218Z,99.99
2016-10-08T06:09:40.231Z,99.99
2016-10-08T06:10:40.248Z,99.99
2016-10-08T06:11:40.268Z,99.99
2016-10-08T06:12:40.295Z,99.99
2016-10-08T06:13:40.297Z,99.99
2016-10-08T06:14:40.321Z,99.99
2016-10-08T06:15:40.336Z,99.99
2016-10-08T06:16:40.354Z,99.99
2016-10-08T06:17:40.356Z,99.99
2016-10-08T06:18:40.384Z,99.99
2016-10-08T06:19:40.397Z,99.99
2016-10-08T06:20:40.411Z,99.99
2016-10-08T06:21:40.424Z,99.99
2016-10-08T06:22:40.434Z,99.99
2016-10-08T06:23:40.452Z,99.99
2016-10-08T06:24:40.467Z,99.99
2016-10-08T06:25:40.480Z,99.99
2016-10-08T06:26:40.501Z,99.99
2016-10-08T06:27:40.516Z,99.99
2016-10-08T06:28:40.523Z,99.99
2016-10-08T06:29:40.531Z,99.99
2016-10-08T06:30:40.582Z,99.99
2016-10-08T06:31:40.577Z,99.99
2016-10-08T06:32:40.577Z,99.99
2016-10-08T06:33:40.601Z,99.99
2016-10-08T06:34:40.612Z,99.99
2016-10-08T06:35:40.629Z,99.99
2016-10-08T06:36:40.648Z,99.99
2016-10-08T06:37:40.658Z,99.99
2016-10-08T06:38:40.674Z,99.99
2016-10-08T06:39:40.702Z,99.99
2016-10-08T06:40:40.718Z,99.99
2016-10-08T06:41:40.715Z,99.99
2016-10-08T06:42:40.736Z,99.99
2016-10-08T06:43:40.755Z,99.99
2016-10-08T06:44:40.775Z,99.99
2016-10-08T06:45:40.786Z,99.99
2016-10-08T06:46:40.799Z,99.99
2016-10-08T06:47:40.826Z,99.99
2016-10-08T06:48:40.841Z,99.99
2016-10-08T06:49:40.850Z,99.99
2016-10-08T06:50:40.857Z,99.99
2016-10-08T06:51:40.876Z,99.99
2016-10-08T06:52:40.897Z,99.99
2016-10-08T06:53:40.903Z,99.99
2016-10-08T06:54:40.919Z,99.99
2016-10-08T06:55:40.932Z,99.99
2016-10-08T06:56:40.948Z,99.99
2016-10-08T06:57:40.969Z,99.99
2016-10-08T06:58:40.980Z,99.99
2016-10-08T06:59:41.009Z,99.99
2016-10-08T07:00:41.022Z,99.99
2016-10-08T07:01:41.041Z,99.99
2016-10-08T07:02:41.044Z,99.99
2016-10-08T07:03:41.072Z,99.99
2016-10-08T07:04:41.083Z,99.99
2016-10-08T07:05:41.099Z,99.26
2016-10-08T07:06:41.107Z,98.97
2016-10-08T07:07:41.124Z,99.07
2016-10-08T07:08:41.137Z,98.41
2016-10-08T07:09:41.158Z,98.6
2016-10-08T07:10:41.179Z,97.93
2016-10-08T07:11:41.191Z,97.83
2016-10-08T07:12:41.210Z,97.36
2016-10-08T07:13:41.217Z,97.83
2016-10-08T07:14:41.241Z,97.74
2016-10-08T07:15:41.261Z,98.41
2016-10-08T07:16:41.284Z,98.22
2016-10-08T07:17:41.290Z,98.12
2016-10-08T07:18:41.294Z,98.12
2016-10-08T07:19:41.321Z,98.03
2016-10-08T07:20:41.334Z,97.93
2016-10-08T07:21:41.350Z,97.36
2016-10-08T07:22:41.367Z,97.22
2016-10-08T07:23:41.380Z,97.31
2016-10-08T07:24:41.396Z,97.31
2016-10-08T07:25:41.415Z,96.94
2016-10-08T07:26:41.429Z,96.17
2016-10-08T07:27:41.450Z,96.55
2016-10-08T07:28:41.450Z,95.79
2016-10-08T07:29:41.476Z,95.12
2016-10-08T07:30:41.499Z,94.27
2016-10-08T07:31:41.509Z,94.46
2016-10-08T07:32:41.519Z,94.46
2016-10-08T07:33:41.534Z,94.65
2016-10-08T07:34:41.559Z,93.79
2016-10-08T07:35:41.572Z,93.27
2016-10-08T07:36:41.583Z,92.89
2016-10-08T07:37:41.599Z,93.55
2016-10-08T07:38:41.626Z,92.51
2016-10-08T07:39:41.641Z,92.03
2016-10-08T07:40:41.658Z,92.41
2016-10-08T07:41:41.669Z,92.32
2016-10-08T07:42:41.694Z,91.75
2016-10-08T07:43:41.702Z,91.51
2016-10-08T07:44:41.706Z,91.6
2016-10-08T07:45:41.739Z,91.6
2016-10-08T07:46:41.753Z,91.31
2016-10-08T07:47:41.759Z,91.41
2016-10-08T07:48:41.785Z,91.7
2016-10-08T07:49:41.798Z,91.13
2016-10-08T07:50:41.816Z,91.22
2016-10-08T07:51:41.837Z,90.65
2016-10-08T07:52:41.848Z,89.84
2016-10-08T07:53:41.868Z,88.98
2016-10-08T07:54:41.886Z,87.55
2016-10-08T07:55:41.900Z,86.41
2016-10-08T07:56:41.906Z,86.69
2016-10-08T07:57:41.935Z,86.69
2016-10-08T07:58:41.941Z,86.98
2016-10-08T07:59:41.956Z,86.88
2016-10-08T08:00:41.972Z,87.65
2016-10-08T08:01:42.002Z,87.84
2016-10-08T08:02:42.016Z,88.12
2016-10-08T08:03:42.038Z,88.41
2016-10-08T08:04:42.041Z,89.17
2016-10-08T08:05:42.059Z,88.98
2016-10-08T08:06:42.083Z,89.17
2016-10-08T08:07:42.096Z,88.41
2016-10-08T08:08:42.122Z,87.93
2016-10-08T08:09:42.126Z,88.31
2016-10-08T08:10:42.152Z,88.18
2016-10-08T08:11:42.154Z,87.98
2016-10-08T08:12:42.185Z,88.65
2016-10-08T08:13:42.202Z,88.65
2016-10-08T08:14:42.218Z,88.93
2016-10-08T08:15:42.227Z,88.84
2016-10-08T08:16:42.239Z,89.22
2016-10-08T08:17:42.265Z,89.89
2016-10-08T08:18:42.285Z,89.98
2016-10-08T08:19:42.295Z,90.08
2016-10-08T08:20:42.319Z,90.17
2016-10-08T08:21:42.332Z,90.46
2016-10-08T08:22:42.336Z,90.17
2016-10-08T08:23:42.354Z,90.46
2016-10-08T08:24:42.370Z,89.7
2016-10-08T08:25:42.398Z,89.22
2016-10-08T08:26:42.419Z,89.13
2016-10-08T08:27:42.434Z,89.41
2016-10-08T08:28:42.448Z,89.32
2016-10-08T08:29:42.465Z,89.22
2016-10-08T08:30:42.483Z,89.13
2016-10-08T08:31:42.490Z,88.65
2016-10-08T08:32:42.512Z,88.22
2016-10-08T08:33:42.524Z,88.12
2016-10-08T08:34:42.554Z,88.22
2016-10-08T08:35:42.561Z,87.65
2016-10-08T08:36:42.575Z,87.27
2016-10-08T08:37:42.600Z,86.69
2016-10-08T08:38:42.613Z,86.41
2016-10-08T08:39:42.623Z,86.79
2016-10-08T08:40:42.642Z,86.98
2016-10-08T08:41:42.664Z,86.6
2016-10-08T08:42:42.677Z,86.32
2016-10-08T08:43:42.694Z,86.12
2016-10-08T08:44:42.721Z,86.26
2016-10-08T08:45:42.738Z,85.69
2016-10-08T08:46:42.738Z,86.16
2016-10-08T08:47:42.769Z,85.97
2016-10-08T08:48:42.784Z,85.31
2016-10-08T08:49:42.792Z,85.78
2016-10-08T08:50:42.808Z,85.6
2016-10-08T08:51:42.831Z,85.5
2016-10-08T08:52:42.851Z,85.21
2016-10-08T08:53:42.865Z,85.25
2016-10-08T08:54:42.887Z,85.25
2016-10-08T08:55:42.908Z,85.16
2016-10-08T08:56:42.918Z,85.16
2016-10-08T08:57:42.940Z,84.55
2016-10-08T08:58:42.958Z,84.16
2016-10-08T08:59:42.975Z,84.36
2016-10-08T09:00:42.985Z,84.64
2016-10-08T09:01:42.990Z,85.41
2016-10-08T09:02:43.029Z,86.07
2016-10-08T09:03:43.041Z,86.07
2016-10-08T09:04:43.054Z,86.45
2016-10-08T09:05:43.069Z,86.93
2016-10-08T09:06:43.092Z,86.74
2016-10-08T09:07:43.096Z,87.02
2016-10-08T09:08:43.131Z,87.31
2016-10-08T09:09:43.146Z,86.88
2016-10-08T09:10:43.157Z,87.07
2016-10-08T09:11:43.175Z,87.74
2016-10-08T09:12:43.191Z,87.93
2016-10-08T09:13:43.204Z,88.12
2016-10-08T09:14:43.232Z,88.41
2016-10-08T09:15:43.244Z,88.22
2016-10-08T09:16:43.265Z,87.74
2016-10-08T09:17:43.273Z,87.69
2016-10-08T09:18:43.291Z,87.31
2016-10-08T09:19:43.306Z,87.5
2016-10-08T09:20:43.325Z,87.5
2016-10-08T09:21:43.352Z,87.12
2016-10-08T09:22:43.374Z,86.07
2016-10-08T09:23:43.374Z,85.88
2016-10-08T09:24:43.391Z,85.97
2016-10-08T09:25:43.433Z,86.26
2016-10-08T09:26:43.436Z,86.16
2016-10-08T09:27:43.446Z,85.69
2016-10-08T09:28:43.475Z,86.36
2016-10-08T09:29:43.493Z,87.02
2016-10-08T09:30:43.495Z,86.07
2016-10-08T09:31:43.528Z,84.16
2016-10-08T09:32:43.545Z,83.31
2016-10-08T09:33:43.552Z,83.5
2016-10-08T09:34:43.579Z,84.07
2016-10-08T09:35:43.593Z,83.31
2016-10-08T09:36:43.605Z,83.36
2016-10-08T09:37:43.619Z,84.83
2016-10-08T09:38:43.639Z,84.31
2016-10-08T09:39:43.653Z,84.6
2016-10-08T09:40:43.661Z,83.4
2016-10-08T09:41:43.683Z,82.83
2016-10-08T09:42:43.704Z,82.54
2016-10-08T09:43:43.731Z,82.07
2016-10-08T09:44:43.761Z,82.4
2016-10-08T09:45:43.763Z,82.49
2016-10-08T09:46:43.777Z,81.44
2016-10-08T09:47:43.793Z,81.35
2016-10-08T09:48:43.815Z,81.35
2016-10-08T09:49:43.827Z,81.92
2016-10-08T09:50:43.844Z,81.29
2016-10-08T09:51:43.887Z,80.3
2016-10-08T09:52:43.880Z,80.24
2016-10-08T09:53:43.906Z,80.53
2016-10-08T09:54:43.911Z,79.44
2016-10-08T09:55:43.933Z,79.72
2016-10-08T09:56:43.950Z,79.91
2016-10-08T09:57:43.979Z,79.72
2016-10-08T09:58:43.992Z,79.72
2016-10-08T09:59:44.031Z,79.63
2016-10-08T10:00:44.023Z,79.91
2016-10-08T10:01:44.046Z,80.39
2016-10-08T10:02:44.062Z,80.2
2016-10-08T10:03:44.079Z,80.11
2016-10-08T10:04:44.099Z,80.49
2016-10-08T10:05:44.112Z,79.63
2016-10-08T10:06:44.127Z,79.91
2016-10-08T10:07:44.155Z,80.2
2016-10-08T10:08:44.176Z,80.49
2016-10-08T10:09:44.179Z,78.52
2016-10-08T10:10:44.207Z,77.95
2016-10-08T10:11:44.212Z,77.86
2016-10-08T10:12:44.243Z,77.57
2016-10-08T10:13:44.255Z,75.66
2016-10-08T10:14:44.280Z,75.95
2016-10-08T10:15:44.289Z,76.33
2016-10-08T10:16:44.311Z,77.28
2016-10-08T10:17:44.322Z,76.9
2016-10-08T10:18:44.358Z,76.75
2016-10-08T10:19:44.364Z,76.75
2016-10-08T10:20:44.391Z,75.22
2016-10-08T10:21:44.407Z,74.9
2016-10-08T10:22:44.421Z,75.85
2016-10-08T10:23:44.442Z,76.81
2016-10-08T10:24:44.459Z,75.62
2016-10-08T10:25:44.479Z,75.24
2016-10-08T10:26:44.490Z,74.57
2016-10-08T10:27:44.514Z,74.8
2016-10-08T10:28:44.531Z,74.04
2016-10-08T10:29:44.536Z,74.23
2016-10-08T10:30:44.554Z,73.37
2016-10-08T10:31:44.579Z,72.23
2016-10-08T10:32:44.599Z,72.03
2016-10-08T10:33:44.613Z,72.64
2016-10-08T10:34:44.639Z,71.59
2016-10-08T10:35:44.647Z,70.83
2016-10-08T10:36:44.664Z,70.83
2016-10-08T10:37:44.692Z,70.64
2016-10-08T10:38:44.716Z,70.29
2016-10-08T10:39:44.724Z,69.05
2016-10-08T10:40:44.740Z,68.48
2016-10-08T10:41:44.762Z,67.75
2016-10-08T10:42:44.787Z,66.6
2016-10-08T10:43:44.795Z,66.35
2016-10-08T10:44:44.818Z,65.77
2016-10-08T10:45:44.839Z,66.06
2016-10-08T10:46:44.857Z,66.06
2016-10-08T10:47:44.885Z,66.06
2016-10-08T10:48:44.900Z,65.68
2016-10-08T10:49:44.928Z,65.97
2016-10-08T10:50:44.926Z,66.25
2016-10-08T10:51:44.946Z,67.02
2016-10-08T10:52:44.973Z,67.02
2016-10-08T10:53:44.984Z,67.65
2016-10-08T10:54:45.007Z,67.84
2016-10-08T10:55:45.020Z,69.62
2016-10-08T10:56:45.036Z,70.87
2016-10-08T10:57:45.049Z,70.96
2016-10-08T10:58:45.084Z,71.63
2016-10-08T10:59:45.096Z,72.45
2016-10-08T11:00:45.119Z,72.36
2016-10-08T11:01:45.130Z,71.78
2016-10-08T11:02:45.163Z,71.02
2016-10-08T11:03:45.164Z,71.27
2016-10-08T11:04:45.190Z,70.61
2016-10-08T11:05:45.205Z,70.98
2016-10-08T11:06:45.236Z,71.66
2016-10-08T11:07:45.240Z,71.94
2016-10-08T11:08:45.273Z,71.59
2016-10-08T11:09:45.285Z,71.78
2016-10-08T11:10:45.302Z,71.98
2016-10-08T11:11:45.322Z,71.88
2016-10-08T11:12:45.339Z,71.78
2016-10-08T11:13:45.349Z,71.69
2016-10-08T11:14:45.380Z,71.31
2016-10-08T11:15:45.401Z,70.92
2016-10-08T11:16:45.406Z,71.5
2016-10-08T11:17:45.429Z,71.88
2016-10-08T11:18:45.450Z,71.5
2016-10-08T11:19:45.473Z,71.98
2016-10-08T11:20:45.491Z,71.5
2016-10-08T11:21:45.504Z,71.12
2016-10-08T11:22:45.524Z,71.75
2016-10-08T11:23:45.540Z,72.23
2016-10-08T11:24:45.550Z,72.42
2016-10-08T11:25:45.579Z,73.08
2016-10-08T11:26:45.600Z,73.56
2016-10-08T11:27:45.614Z,72.42
2016-10-08T11:28:45.635Z,72.32
2016-10-08T11:29:45.651Z,72.8
2016-10-08T11:30:45.667Z,72.51
2016-10-08T11:31:45.679Z,72.76
2016-10-08T11:32:45.707Z,73.62
2016-10-08T11:33:45.723Z,75.15
2016-10-08T11:34:45.743Z,74.38
2016-10-08T11:35:45.753Z,74.29
2016-10-08T11:36:45.765Z,74.38
2016-10-08T11:37:45.786Z,74.38
2016-10-08T11:38:45.800Z,74.19
2016-10-08T11:39:45.827Z,74.52
2016-10-08T11:40:45.849Z,74.67
2016-10-08T11:41:45.871Z,74.9
2016-10-08T11:42:45.874Z,74.8
2016-10-08T11:43:45.884Z,74.23
2016-10-08T11:44:45.915Z,73.18
2016-10-08T11:45:45.936Z,73.28
2016-10-08T11:46:45.953Z,73.66
2016-10-08T11:47:45.964Z,74.04
2016-10-08T11:48:45.993Z,73.47
2016-10-08T11:49:46.002Z,72.99
2016-10-08T11:50:46.007Z,72.42
2016-10-08T11:51:46.040Z,72.03
2016-10-08T11:52:46.052Z,72.61
2016-10-08T11:53:46.075Z,72.61
2016-10-08T11:54:46.084Z,72.13
2016-10-08T11:55:46.111Z,71.75
2016-10-08T11:56:46.123Z,71.66
2016-10-08T11:57:46.149Z,71.21
2016-10-08T11:58:46.157Z,70.83
2016-10-08T11:59:46.187Z,71.12
2016-10-08T12:00:46.244Z,71.21
2016-10-08T12:01:46.264Z,70.16
2016-10-08T12:02:46.251Z,69.97
2016-10-08T12:03:46.248Z,69.68
2016-10-08T12:04:46.269Z,70.26
2016-10-08T12:05:46.282Z,69.4
2016-10-08T12:06:46.315Z,69.59
2016-10-08T12:07:46.360Z,69.4
2016-10-08T12:08:46.338Z,69.59
2016-10-08T12:09:46.357Z,68.82
2016-10-08T12:10:46.364Z,68.57
2016-10-08T12:11:46.392Z,68.73
2016-10-08T12:12:46.402Z,68.44
2016-10-08T12:13:46.424Z,68.67
2016-10-08T12:14:46.452Z,68.06
2016-10-08T12:15:46.468Z,68.16
2016-10-08T12:16:46.487Z,66.85
2016-10-08T12:17:46.507Z,67.14
2016-10-08T12:18:46.521Z,67.21
2016-10-08T12:19:46.548Z,66.82
2016-10-08T12:20:46.547Z,67.49
2016-10-08T12:21:46.582Z,67.87
2016-10-08T12:22:46.603Z,67.97
2016-10-08T12:23:46.606Z,68.26
2016-10-08T12:24:46.628Z,68.92
2016-10-08T12:25:46.651Z,69.4
2016-10-08T12:26:46.670Z,68.73
2016-10-08T12:27:46.688Z,67.97
2016-10-08T12:28:46.703Z,68.67
2016-10-08T12:29:46.722Z,68.26
2016-10-08T12:30:46.741Z,68
2016-10-08T12:31:46.751Z,68.19
2016-10-08T12:32:46.778Z,68.38
2016-10-08T12:33:46.796Z,67.91
2016-10-08T12:34:46.802Z,67.71
2016-10-08T12:35:46.820Z,67.62
2016-10-08T12:36:46.839Z,68.73
2016-10-08T12:37:46.867Z,68.44
2016-10-08T12:38:46.879Z,68.86
2016-10-08T12:39:49.156Z,68.82
2016-10-08T12:40:46.918Z,68.82
2016-10-08T12:41:46.939Z,68.82
2016-10-08T12:42:46.946Z,68.35
2016-10-08T12:43:46.972Z,69.21
2016-10-08T12:44:46.982Z,69.21
2016-10-08T12:45:47.048Z,69.21
2016-10-08T12:47:01.863Z,69.21
2016-10-08T12:47:47.040Z,68.82
2016-10-08T12:48:47.058Z,69.21
2016-10-08T12:49:47.074Z,69.02
2016-10-08T12:50:47.100Z,68.54
2016-10-08T12:51:47.107Z,68.44
2016-10-08T12:52:47.140Z,68.63
2016-10-08T12:53:47.155Z,68.54
2016-10-08T12:54:47.173Z,68.82
2016-10-08T12:55:47.185Z,68.26